Time,TemperatureF,DewpointF,PressureIn,WindDirection,WindDirectionDegrees,WindSpeedMPH,WindSpeedGustMPH,Humidity,HourlyPrecipIn,Conditions,Clouds,dailyrainin,SoftwareType,DateUTC
2013-02-03 00:00:00,50.0,42.0,30.08,SSE,166,8.0,8.0,74,0.00,,,0.00,Wunderground v.1.15,2013-02-03 05:00:00,
2013-02-03 00:05:00,49.8,42.2,30.08,SSE,151,8.0,8.0,75,0.00,,,0.00,Wunderground v.1.15,2013-02-03 05:05:00,
2013-02-03 00:10:00,49.7,42.1,30.07,SSE,165,8.0,8.0,75,0.00,,,0.00,Wunderground v.1.15,2013-02-03 05:10:00,
2013-02-03 00:15:00,49.7,42.1,30.07,SSE,157,7.0,8.0,75,0.00,,,0.00,Wunderground v.1.15,2013-02-03 05:15:00,
2013-02-03 00:20:00,49.7,42.1,30.07,SSE,150,6.0,6.0,75,0.00,,,0.00,Wunderground v.1.15,2013-02-03 05:20:00,
2013-02-03 00:30:00,49.9,41.6,30.07,SE,137,5.0,5.0,73,0.00,,,0.00,Wunderground v.1.15,2013-02-03 05:30:00,
2013-02-03 00:40:00,50.2,41.2,30.06,SE,145,4.0,4.0,71,0.00,,,0.00,Wunderground v.1.15,2013-02-03 05:40:00,
2013-02-03 00:50:00,50.3,40.9,30.05,South,171,6.0,6.0,70,0.00,,,0.00,Wunderground v.1.15,2013-02-03 05:50:00,
2013-02-03 01:00:00,50.1,40.7,30.05,SSE,162,9.0,9.0,70,0.00,,,0.00,Wunderground v.1.15,2013-02-03 06:00:00,
2013-02-03 01:05:00,50.0,41.0,30.05,SE,139,8.0,9.0,71,0.00,,,0.00,Wunderground v.1.15,2013-02-03 06:05:00,
2013-02-03 01:15:00,50.1,39.9,30.05,South,181,9.0,9.0,68,0.00,,,0.00,Wunderground v.1.15,2013-02-03 06:15:00,
2013-02-03 01:25:00,50.6,39.7,30.04,SSW,203,5.0,6.0,66,0.00,,,0.00,Wunderground v.1.15,2013-02-03 06:25:00,
2013-02-03 01:35:00,50.9,38.3,30.04,SSW,194,6.0,8.0,62,0.00,,,0.00,Wunderground v.1.15,2013-02-03 06:35:00,
2013-02-03 01:45:00,50.9,37.9,30.03,SW,229,6.0,9.0,61,0.00,,,0.00,Wunderground v.1.15,2013-02-03 06:45:00,
2013-02-03 01:50:00,51.0,38.0,30.03,ESE,116,6.0,6.0,61,0.00,,,0.00,Wunderground v.1.15,2013-02-03 06:50:00,
2013-02-03 01:55:00,51.1,37.7,30.03,SSE,153,5.0,6.0,60,0.00,,,0.00,Wunderground v.1.15,2013-02-03 06:55:00,
2013-02-03 02:00:00,51.0,37.6,30.03,SSW,197,4.0,5.0,60,0.00,,,0.00,Wunderground v.1.15,2013-02-03 07:00:00,
2013-02-03 02:10:00,51.1,37.3,30.03,SE,130,4.0,4.0,59,0.00,,,0.00,Wunderground v.1.15,2013-02-03 07:10:00,
2013-02-03 02:20:00,51.0,36.3,30.02,SSE,147,4.0,8.0,57,0.00,,,0.00,Wunderground v.1.15,2013-02-03 07:20:00,
2013-02-03 02:30:00,51.4,35.3,30.02,North,357,5.0,5.0,54,0.00,,,0.00,Wunderground v.1.15,2013-02-03 07:30:00,
2013-02-03 02:35:00,51.2,35.6,30.02,SSE,151,4.0,5.0,55,0.00,,,0.00,Wunderground v.1.15,2013-02-03 07:35:00,
2013-02-03 02:45:00,51.0,35.4,30.02,South,187,3.0,4.0,55,0.00,,,0.00,Wunderground v.1.15,2013-02-03 07:45:00,
2013-02-03 02:55:00,50.7,35.1,30.02,NNE,27,2.0,3.0,55,0.00,,,0.00,Wunderground v.1.15,2013-02-03 07:55:00,
2013-02-03 03:05:00,50.2,35.5,30.02,NE,52,3.0,3.0,57,0.00,,,0.00,Wunderground v.1.15,2013-02-03 08:05:00,
2013-02-03 03:15:00,49.7,35.1,30.01,ESE,117,3.0,3.0,57,0.00,,,0.00,Wunderground v.1.15,2013-02-03 08:15:00,
2013-02-03 03:20:00,49.5,35.3,30.01,East,96,3.0,3.0,58,0.00,,,0.00,Wunderground v.1.15,2013-02-03 08:20:00,
2013-02-03 03:30:00,49.5,34.9,30.00,SW,216,3.0,3.0,57,0.00,,,0.00,Wunderground v.1.15,2013-02-03 08:30:00,
2013-02-03 03:40:00,49.4,35.2,30.00,East,89,2.0,5.0,58,0.00,,,0.00,Wunderground v.1.15,2013-02-03 08:40:00,
2013-02-03 03:45:00,49.3,34.7,30.00,SSW,212,2.0,5.0,57,0.00,,,0.00,Wunderground v.1.15,2013-02-03 08:45:00,
2013-02-03 03:55:00,49.1,34.1,30.00,ENE,71,3.0,3.0,56,0.00,,,0.00,Wunderground v.1.15,2013-02-03 08:55:00,
2013-02-03 04:05:00,48.9,34.3,30.00,NE,48,3.0,4.0,57,0.00,,,0.00,Wunderground v.1.15,2013-02-03 09:05:00,
2013-02-03 04:10:00,48.6,34.0,30.00,NNE,19,3.0,3.0,57,0.00,,,0.00,Wunderground v.1.15,2013-02-03 09:10:00,
2013-02-03 04:20:00,48.2,34.1,30.00,NE,56,4.0,4.0,58,0.00,,,0.00,Wunderground v.1.15,2013-02-03 09:20:00,
2013-02-03 04:30:00,48.2,33.2,29.99,SSE,153,4.0,4.0,56,0.00,,,0.00,Wunderground v.1.15,2013-02-03 09:30:00,
2013-02-03 04:40:00,48.2,33.2,29.99,NNW,340,4.0,6.0,56,0.00,,,0.00,Wunderground v.1.15,2013-02-03 09:40:00,
2013-02-03 04:50:00,47.8,32.9,30.00,WNW,301,4.0,4.0,56,0.00,,,0.00,Wunderground v.1.15,2013-02-03 09:50:00,
2013-02-03 04:55:00,47.7,33.2,30.00,NNE,14,3.0,4.0,57,0.00,,,0.00,Wunderground v.1.15,2013-02-03 09:55:00,
2013-02-03 05:00:00,47.6,33.5,30.00,NE,43,2.0,5.0,58,0.00,,,0.00,Wunderground v.1.15,2013-02-03 10:00:00,
2013-02-03 05:10:00,47.4,33.4,30.00,East,95,3.0,3.0,58,0.00,,,0.00,Wunderground v.1.15,2013-02-03 10:10:00,
2013-02-03 05:20:00,47.4,33.8,30.00,NE,50,3.0,4.0,59,0.00,,,0.00,Wunderground v.1.15,2013-02-03 10:20:00,
2013-02-03 05:25:00,47.6,34.0,30.01,NNW,329,4.0,5.0,59,0.00,,,0.00,Wunderground v.1.15,2013-02-03 10:25:00,
2013-02-03 05:35:00,47.6,34.0,30.01,NNE,21,4.0,6.0,59,0.00,,,0.00,Wunderground v.1.15,2013-02-03 10:35:00,
2013-02-03 05:45:00,47.4,34.2,30.01,NNE,27,5.0,7.0,60,0.00,,,0.00,Wunderground v.1.15,2013-02-03 10:45:00,
2013-02-03 05:55:00,46.9,34.6,30.01,NNE,13,5.0,5.0,62,0.00,,,0.00,Wunderground v.1.15,2013-02-03 10:55:00,
2013-02-03 06:05:00,46.9,35.7,30.01,North,6,5.0,5.0,65,0.00,,,0.00,Wunderground v.1.15,2013-02-03 11:05:00,
2013-02-03 06:15:00,46.9,36.5,30.01,NNE,18,5.0,6.0,67,0.00,,,0.00,Wunderground v.1.15,2013-02-03 11:15:00,
2013-02-03 06:25:00,46.8,36.8,30.02,NNE,14,6.0,10.0,68,0.00,,,0.00,Wunderground v.1.15,2013-02-03 11:25:00,
2013-02-03 06:35:00,46.7,37.4,30.02,East,95,5.0,8.0,70,0.00,,,0.00,Wunderground v.1.15,2013-02-03 11:35:00,
2013-02-03 06:45:00,46.4,37.5,30.02,ENE,61,5.0,8.0,71,0.00,,,0.00,Wunderground v.1.15,2013-02-03 11:45:00,
2013-02-03 06:55:00,46.3,37.8,30.02,North,357,6.0,10.0,72,0.00,,,0.00,Wunderground v.1.15,2013-02-03 11:55:00,
2013-02-03 07:05:00,46.0,37.5,30.02,ENE,65,7.0,14.0,72,0.00,,,0.00,Wunderground v.1.15,2013-02-03 12:05:00,
2013-02-03 07:15:00,45.9,37.0,30.02,East,81,7.0,10.0,71,0.00,,,0.00,Wunderground v.1.15,2013-02-03 12:15:00,
2013-02-03 07:25:00,45.8,37.3,30.03,ENE,67,6.0,7.0,72,0.00,,,0.00,Wunderground v.1.15,2013-02-03 12:25:00,
2013-02-03 07:30:00,45.7,37.2,30.03,ESE,114,6.0,7.0,72,0.00,,,0.00,Wunderground v.1.15,2013-02-03 12:30:00,
2013-02-03 07:40:00,45.9,36.3,30.03,ESE,110,6.0,6.0,69,0.00,,,0.00,Wunderground v.1.15,2013-02-03 12:40:00,
2013-02-03 07:45:00,45.9,36.3,30.04,North,352,7.0,7.0,69,0.00,,,0.00,Wunderground v.1.15,2013-02-03 12:45:00,
2013-02-03 07:55:00,45.8,35.8,30.04,NNW,345,8.0,11.0,68,0.00,,,0.00,Wunderground v.1.15,2013-02-03 12:55:00,
2013-02-03 08:00:00,45.8,35.8,30.04,NNE,17,9.0,14.0,68,0.00,,,0.00,Wunderground v.1.15,2013-02-03 13:00:00,
2013-02-03 08:10:00,45.9,35.6,30.05,NNW,342,9.0,9.0,67,0.00,,,0.00,Wunderground v.1.15,2013-02-03 13:10:00,
2013-02-03 08:20:00,45.9,35.9,30.05,NW,320,8.0,8.0,68,0.00,,,0.00,Wunderground v.1.15,2013-02-03 13:20:00,
2013-02-03 08:30:00,46.0,35.7,30.05,NNE,29,8.0,8.0,67,0.00,,,0.00,Wunderground v.1.15,2013-02-03 13:30:00,
2013-02-03 08:40:00,46.2,35.8,30.05,WNW,285,8.0,12.0,67,0.00,,,0.00,Wunderground v.1.15,2013-02-03 13:40:00,
2013-02-03 08:50:00,46.2,35.1,30.05,NNE,31,9.0,9.0,65,0.00,,,0.00,Wunderground v.1.15,2013-02-03 13:50:00,
2013-02-03 09:00:00,46.5,35.0,30.05,NNW,347,11.0,11.0,64,0.00,,,0.00,Wunderground v.1.15,2013-02-03 14:00:00,
2013-02-03 09:10:00,46.7,34.8,30.05,NNW,342,10.0,11.0,63,0.00,,,0.00,Wunderground v.1.15,2013-02-03 14:10:00,
2013-02-03 09:20:00,46.8,34.9,30.05,North,8,10.0,10.0,63,0.00,,,0.00,Wunderground v.1.15,2013-02-03 14:20:00,
2013-02-03 09:25:00,46.8,34.9,30.05,NNW,347,12.0,15.0,63,0.00,,,0.00,Wunderground v.1.15,2013-02-03 14:25:00,
2013-02-03 09:35:00,47.1,34.7,30.05,North,6,11.0,11.0,62,0.00,,,0.00,Wunderground v.1.15,2013-02-03 14:35:00,
2013-02-03 09:45:00,47.5,34.7,30.05,NNW,344,10.0,12.0,61,0.00,,,0.00,Wunderground v.1.15,2013-02-03 14:45:00,
2013-02-03 09:55:00,48.1,34.4,30.05,NNW,331,9.0,10.0,59,0.00,,,0.00,Wunderground v.1.15,2013-02-03 14:55:00,
2013-02-03 10:05:00,48.5,34.4,30.05,NNE,31,8.0,9.0,58,0.00,,,0.00,Wunderground v.1.15,2013-02-03 15:05:00,
2013-02-03 10:10:00,48.8,34.2,30.05,NNE,33,8.0,12.0,57,0.00,,,0.00,Wunderground v.1.15,2013-02-03 15:10:00,
2013-02-03 10:20:00,49.1,33.6,30.05,NNE,23,9.0,14.0,55,0.00,,,0.00,Wunderground v.1.15,2013-02-03 15:20:00,
2013-02-03 10:30:00,49.5,34.0,30.05,North,352,12.0,13.0,55,0.00,,,0.00,Wunderground v.1.15,2013-02-03 15:30:00,
2013-02-03 10:40:00,49.8,33.8,30.04,NW,323,13.0,13.0,54,0.00,,,0.00,Wunderground v.1.15,2013-02-03 15:40:00,
2013-02-03 10:45:00,50.0,34.0,30.04,NE,52,12.0,13.0,54,0.00,,,0.00,Wunderground v.1.15,2013-02-03 15:45:00,
2013-02-03 10:55:00,50.1,31.7,30.03,North,352,11.0,14.0,49,0.00,,,0.00,Wunderground v.1.15,2013-02-03 15:55:00,
2013-02-03 11:00:00,50.2,33.7,30.03,NNE,12,12.0,12.0,53,0.00,,,0.00,Wunderground v.1.15,2013-02-03 16:00:00,
2013-02-03 11:10:00,50.8,32.8,30.04,NNW,339,11.0,12.0,50,0.00,,,0.00,Wunderground v.1.15,2013-02-03 16:10:00,
2013-02-03 11:15:00,50.9,32.4,30.03,NNW,345,14.0,20.0,49,0.00,,,0.00,Wunderground v.1.15,2013-02-03 16:15:00,
2013-02-03 11:25:00,51.6,34.5,30.03,North,357,15.0,17.0,52,0.00,,,0.00,Wunderground v.1.15,2013-02-03 16:25:00,
2013-02-03 11:35:00,52.1,33.5,30.03,North,357,14.0,14.0,49,0.00,,,0.00,Wunderground v.1.15,2013-02-03 16:35:00,
2013-02-03 11:45:00,52.2,33.6,30.03,NNW,334,12.0,14.0,49,0.00,,,0.00,Wunderground v.1.15,2013-02-03 16:45:00,
2013-02-03 11:55:00,52.6,33.5,30.01,North,2,10.0,16.0,48,0.00,,,0.00,Wunderground v.1.15,2013-02-03 16:55:00,
2013-02-03 12:05:00,52.6,33.5,30.01,NNW,343,15.0,15.0,48,0.00,,,0.00,Wunderground v.1.15,2013-02-03 17:05:00,
2013-02-03 12:15:00,53.1,32.8,30.00,North,352,8.0,13.0,46,0.00,,,0.00,Wunderground v.1.15,2013-02-03 17:15:00,
2013-02-03 12:25:00,53.3,32.5,29.99,NNW,334,9.0,10.0,45,0.00,,,0.00,Wunderground v.1.15,2013-02-03 17:25:00,
2013-02-03 12:30:00,53.6,32.2,29.99,NE,35,10.0,10.0,44,0.00,,,0.00,Wunderground v.1.15,2013-02-03 17:30:00,
2013-02-03 12:40:00,54.1,33.2,29.98,NNW,345,11.0,19.0,45,0.00,,,0.00,Wunderground v.1.15,2013-02-03 17:40:00,
2013-02-03 12:50:00,54.4,34.0,29.98,ENE,75,9.0,9.0,46,0.00,,,0.00,Wunderground v.1.15,2013-02-03 17:50:00,
2013-02-03 13:00:00,54.9,33.9,29.97,NNW,341,9.0,11.0,45,0.00,,,0.00,Wunderground v.1.15,2013-02-03 18:00:00,
2013-02-03 13:10:00,54.9,34.5,29.95,North,11,10.0,10.0,46,0.00,,,0.00,Wunderground v.1.15,2013-02-03 18:10:00,
2013-02-03 13:20:00,55.5,33.9,29.95,NW,323,7.0,10.0,44,0.00,,,0.00,Wunderground v.1.15,2013-02-03 18:20:00,
2013-02-03 13:30:00,55.7,34.1,29.94,NW,305,9.0,9.0,44,0.00,,,0.00,Wunderground v.1.15,2013-02-03 18:30:00,
2013-02-03 13:35:00,55.8,34.2,29.94,NE,39,9.0,9.0,44,0.00,,,0.00,Wunderground v.1.15,2013-02-03 18:35:00,
2013-02-03 13:45:00,56.3,34.6,29.94,WSW,256,6.0,8.0,44,0.00,,,0.00,Wunderground v.1.15,2013-02-03 18:45:00,
2013-02-03 13:55:00,56.9,34.0,29.93,ESE,106,7.0,8.0,42,0.00,,,0.00,Wunderground v.1.15,2013-02-03 18:55:00,
2013-02-03 14:05:00,57.1,35.4,29.92,NNW,345,6.0,7.0,44,0.00,,,0.00,Wunderground v.1.15,2013-02-03 19:05:00,
2013-02-03 14:15:00,57.4,35.1,29.92,East,86,6.0,6.0,43,0.00,,,0.00,Wunderground v.1.15,2013-02-03 19:15:00,
2013-02-03 14:25:00,57.5,34.6,29.92,ENE,75,9.0,9.0,42,0.00,,,0.00,Wunderground v.1.15,2013-02-03 19:25:00,
2013-02-03 14:35:00,58.2,34.0,29.92,East,81,7.0,9.0,40,0.00,,,0.00,Wunderground v.1.15,2013-02-03 19:35:00,
2013-02-03 14:45:00,58.2,33.3,29.92,NW,312,9.0,11.0,39,0.00,,,0.00,Wunderground v.1.15,2013-02-03 19:45:00,
2013-02-03 14:50:00,58.4,34.2,29.92,NNE,33,10.0,10.0,40,0.00,,,0.00,Wunderground v.1.15,2013-02-03 19:50:00,
2013-02-03 14:55:00,58.6,34.3,29.92,NE,42,9.0,12.0,40,0.00,,,0.00,Wunderground v.1.15,2013-02-03 19:55:00,
2013-02-03 15:05:00,58.6,35.0,29.91,ESE,115,9.0,12.0,41,0.00,,,0.00,Wunderground v.1.15,2013-02-03 20:05:00,
2013-02-03 15:10:00,58.6,34.3,29.91,NE,50,9.0,9.0,40,0.00,,,0.00,Wunderground v.1.15,2013-02-03 20:10:00,
2013-02-03 15:20:00,58.8,34.5,29.91,NNE,12,8.0,11.0,40,0.00,,,0.00,Wunderground v.1.15,2013-02-03 20:20:00,
2013-02-03 15:30:00,58.8,34.5,29.91,NNE,13,11.0,11.0,40,0.00,,,0.00,Wunderground v.1.15,2013-02-03 20:30:00,
2013-02-03 15:40:00,59.2,34.9,29.91,East,83,7.0,7.0,40,0.00,,,0.00,Wunderground v.1.15,2013-02-03 20:40:00,
2013-02-03 15:50:00,59.5,33.9,29.91,SE,142,8.0,8.0,38,0.00,,,0.00,Wunderground v.1.15,2013-02-03 20:50:00,
2013-02-03 16:00:00,59.6,34.6,29.91,ESE,118,8.0,13.0,39,0.00,,,0.00,Wunderground v.1.15,2013-02-03 21:00:00,
2013-02-03 16:05:00,59.6,33.9,29.91,ENE,58,8.0,13.0,38,0.00,,,0.00,Wunderground v.1.15,2013-02-03 21:05:00,
2013-02-03 16:15:00,59.9,34.9,29.91,East,98,7.0,9.0,39,0.00,,,0.00,Wunderground v.1.15,2013-02-03 21:15:00,
2013-02-03 16:25:00,60.2,33.1,29.91,ESE,113,7.0,10.0,36,0.00,,,0.00,Wunderground v.1.15,2013-02-03 21:25:00,
2013-02-03 16:35:00,60.3,34.6,29.91,NE,37,7.0,11.0,38,0.00,,,0.00,Wunderground v.1.15,2013-02-03 21:35:00,
2013-02-03 16:40:00,60.5,33.4,29.91,East,79,6.0,10.0,36,0.00,,,0.00,Wunderground v.1.15,2013-02-03 21:40:00,
2013-02-03 16:50:00,60.5,34.1,29.91,NW,326,7.0,7.0,37,0.00,,,0.00,Wunderground v.1.15,2013-02-03 21:50:00,
2013-02-03 17:00:00,60.2,33.1,29.91,ENE,68,9.0,9.0,36,0.00,,,0.00,Wunderground v.1.15,2013-02-03 22:00:00,
2013-02-03 17:10:00,60.2,34.5,29.91,East,85,7.0,7.0,38,0.00,,,0.00,Wunderground v.1.15,2013-02-03 22:10:00,
2013-02-03 17:20:00,60.2,35.1,29.91,ESE,123,7.0,7.0,39,0.00,,,0.00,Wunderground v.1.15,2013-02-03 22:20:00,
2013-02-03 17:30:00,60.1,35.0,29.91,SSW,209,4.0,4.0,39,0.00,,,0.00,Wunderground v.1.15,2013-02-03 22:30:00,
2013-02-03 17:40:00,60.0,35.0,29.92,SW,229,4.0,4.0,39,0.00,,,0.00,Wunderground v.1.15,2013-02-03 22:40:00,
2013-02-03 17:50:00,59.9,34.9,29.92,SSW,199,5.0,5.0,39,0.00,,,0.00,Wunderground v.1.15,2013-02-03 22:50:00,
2013-02-03 18:00:00,59.6,34.6,29.92,SSW,206,5.0,8.0,39,0.00,,,0.00,Wunderground v.1.15,2013-02-03 23:00:00,
2013-02-03 18:10:00,59.4,35.1,29.92,SE,128,4.0,4.0,40,0.00,,,0.00,Wunderground v.1.15,2013-02-03 23:10:00,
2013-02-03 18:20:00,59.1,35.4,29.93,SW,216,5.0,6.0,41,0.00,,,0.00,Wunderground v.1.15,2013-02-03 23:20:00,
2013-02-03 18:30:00,58.7,35.7,29.93,SSW,199,4.0,4.0,42,0.00,,,0.00,Wunderground v.1.15,2013-02-03 23:30:00,
2013-02-03 18:40:00,58.4,36.0,29.93,SSE,155,4.0,4.0,43,0.00,,,0.00,Wunderground v.1.15,2013-02-03 23:40:00,
2013-02-03 18:50:00,58.1,35.7,29.93,SSE,148,4.0,4.0,43,0.00,,,0.00,Wunderground v.1.15,2013-02-03 23:50:00,
2013-02-03 18:55:00,58.0,36.2,29.94,WSW,240,4.0,5.0,44,0.00,,,0.00,Wunderground v.1.15,2013-02-03 23:55:00,
2013-02-03 19:00:00,57.7,36.5,29.94,WSW,247,3.0,3.0,45,0.00,,,0.00,Wunderground v.1.15,2013-02-04 00:00:00,
2013-02-03 19:10:00,57.5,36.3,29.94,SE,125,4.0,4.0,45,0.00,,,0.00,Wunderground v.1.15,2013-02-04 00:10:00,
2013-02-03 19:20:00,57.2,35.5,29.94,SE,141,5.0,5.0,44,0.00,,,0.00,Wunderground v.1.15,2013-02-04 00:20:00,
2013-02-03 19:25:00,57.2,35.5,29.95,SSW,200,4.0,5.0,44,0.00,,,0.00,Wunderground v.1.15,2013-02-04 00:25:00,
2013-02-03 19:35:00,56.9,35.8,29.95,SSE,147,4.0,7.0,45,0.00,,,0.00,Wunderground v.1.15,2013-02-04 00:35:00,
2013-02-03 19:45:00,56.7,35.6,29.96,SSE,158,4.0,5.0,45,0.00,,,0.00,Wunderground v.1.15,2013-02-04 00:45:00,
2013-02-03 19:55:00,56.5,36.0,29.96,SSE,158,4.0,4.0,46,0.00,,,0.00,Wunderground v.1.15,2013-02-04 00:55:00,
2013-02-03 20:05:00,56.6,35.5,29.96,SE,133,4.0,4.0,45,0.00,,,0.00,Wunderground v.1.15,2013-02-04 01:05:00,
2013-02-03 20:10:00,56.7,35.6,29.97,South,180,4.0,4.0,45,0.00,,,0.00,Wunderground v.1.15,2013-02-04 01:10:00,
2013-02-03 20:20:00,56.5,36.5,29.97,SSE,147,4.0,4.0,47,0.00,,,0.00,Wunderground v.1.15,2013-02-04 01:20:00,
2013-02-03 20:30:00,55.9,35.9,29.97,SW,230,3.0,4.0,47,0.00,,,0.00,Wunderground v.1.15,2013-02-04 01:30:00,
2013-02-03 20:40:00,55.6,36.2,29.97,SSW,208,3.0,6.0,48,0.00,,,0.00,Wunderground v.1.15,2013-02-04 01:40:00,
2013-02-03 20:50:00,55.3,35.9,29.97,South,183,3.0,3.0,48,0.00,,,0.00,Wunderground v.1.15,2013-02-04 01:50:00,
2013-02-03 21:00:00,54.9,37.6,29.97,South,170,4.0,4.0,52,0.00,,,0.00,Wunderground v.1.15,2013-02-04 02:00:00,
2013-02-03 21:05:00,54.5,37.7,29.98,South,170,5.0,7.0,53,0.00,,,0.00,Wunderground v.1.15,2013-02-04 02:05:00,
2013-02-03 21:15:00,53.7,37.0,29.98,SSE,162,4.0,6.0,53,0.00,,,0.00,Wunderground v.1.15,2013-02-04 02:15:00,
2013-02-03 21:25:00,54.0,36.8,29.98,SE,135,4.0,4.0,52,0.00,,,0.00,Wunderground v.1.15,2013-02-04 02:25:00,
2013-02-03 21:35:00,53.8,36.6,29.99,South,191,4.0,5.0,52,0.00,,,0.00,Wunderground v.1.15,2013-02-04 02:35:00,
2013-02-03 21:45:00,53.9,36.7,30.00,NNE,14,3.0,4.0,52,0.00,,,0.00,Wunderground v.1.15,2013-02-04 02:45:00,
2013-02-03 21:55:00,54.2,36.5,30.00,NNW,328,3.0,3.0,51,0.00,,,0.00,Wunderground v.1.15,2013-02-04 02:55:00,
2013-02-03 22:05:00,54.0,35.8,30.00,NNW,339,3.0,5.0,50,0.00,,,0.00,Wunderground v.1.15,2013-02-04 03:05:00,
2013-02-03 22:15:00,53.7,36.0,30.01,NNW,344,5.0,5.0,51,0.00,,,0.00,Wunderground v.1.15,2013-02-04 03:15:00,
2013-02-03 22:25:00,53.2,36.0,30.01,North,8,5.0,5.0,52,0.00,,,0.00,Wunderground v.1.15,2013-02-04 03:25:00,
2013-02-03 22:35:00,52.6,35.9,30.01,NW,313,4.0,5.0,53,0.00,,,0.00,Wunderground v.1.15,2013-02-04 03:35:00,
2013-02-03 22:45:00,52.4,36.2,30.01,North,352,3.0,4.0,54,0.00,,,0.00,Wunderground v.1.15,2013-02-04 03:45:00,
2013-02-03 22:50:00,52.3,35.7,30.02,North,352,3.0,3.0,53,0.00,,,0.00,Wunderground v.1.15,2013-02-04 03:50:00,
2013-02-03 23:00:00,52.1,35.5,30.02,North,9,3.0,3.0,53,0.00,,,0.00,Wunderground v.1.15,2013-02-04 04:00:00,
2013-02-03 23:10:00,52.0,35.4,30.02,NNW,346,2.0,3.0,53,0.00,,,0.00,Wunderground v.1.15,2013-02-04 04:10:00,
2013-02-03 23:20:00,51.7,35.1,30.02,North,11,2.0,2.0,53,0.00,,,0.00,Wunderground v.1.15,2013-02-04 04:20:00,
2013-02-03 23:30:00,51.5,35.4,30.01,NNW,341,2.0,3.0,54,0.00,,,0.00,Wunderground v.1.15,2013-02-04 04:30:00,
2013-02-03 23:40:00,51.4,34.3,30.02,North,6,2.0,4.0,52,0.00,,,0.00,Wunderground v.1.15,2013-02-04 04:40:00,
2013-02-03 23:50:00,51.4,34.3,30.02,NW,319,3.0,5.0,52,0.00,,,0.00,Wunderground v.1.15,2013-02-04 04:50:00,